createdAt,value
2018-07-25T00:02:20.230Z,98225.79
2018-07-25T00:04:49.393Z,98215.10
2018-07-25T00:07:18.623Z,98218.15
2018-07-25T00:09:47.841Z,98219.85
2018-07-25T00:12:17.136Z,98221.98
2018-07-25T00:14:46.397Z,98219.38
2018-07-25T00:17:15.545Z,98216.95
2018-07-25T00:19:44.805Z,98220.23
2018-07-25T00:22:14.021Z,98217.84
2018-07-25T00:24:43.408Z,98223.19
2018-07-25T00:27:12.548Z,98224.55
2018-07-25T00:29:41.816Z,98227.42
2018-07-25T00:32:11.259Z,98227.42
2018-07-25T00:34:40.457Z,98220.97
2018-07-25T00:37:09.624Z,98229.81
2018-07-25T00:39:38.778Z,98234.35
2018-07-25T00:42:07.916Z,98236.23
2018-07-25T00:44:37.226Z,98232.95
2018-07-25T00:47:06.337Z,98231.61
2018-07-25T00:49:35.514Z,98227.56
2018-07-25T00:52:04.661Z,98224.56
2018-07-25T00:54:33.909Z,98224.17
2018-07-25T00:57:03.039Z,98227.36
2018-07-25T00:59:32.248Z,98223.13
2018-07-25T01:02:01.525Z,98222.31
2018-07-25T01:04:30.704Z,98226.55
2018-07-25T01:06:59.805Z,98228.31
2018-07-25T01:09:28.981Z,98231.50
2018-07-25T01:11:58.221Z,98224.66
2018-07-25T01:14:27.547Z,98223.87
2018-07-25T01:16:56.953Z,98226.50
2018-07-25T01:19:26.249Z,98225.67
2018-07-25T01:21:55.500Z,98238.27
2018-07-25T01:24:24.745Z,98227.80
2018-07-25T01:26:54.029Z,98229.54
2018-07-25T01:29:23.501Z,98233.44
2018-07-25T01:31:52.841Z,98237.11
2018-07-25T01:34:21.944Z,98234.63
2018-07-25T01:36:51.168Z,98234.44
2018-07-25T01:39:20.292Z,98238.79
2018-07-25T01:41:49.489Z,98243.07
2018-07-25T01:44:18.621Z,98240.29
2018-07-25T01:46:47.800Z,98245.80
2018-07-25T01:49:16.944Z,98239.53
2018-07-25T01:51:46.135Z,98250.50
2018-07-25T01:54:15.288Z,98252.36
2018-07-25T01:56:44.461Z,98252.91
2018-07-25T01:59:13.632Z,98254.54
2018-07-25T02:01:43.037Z,98250.44
2018-07-25T02:04:12.201Z,98249.37
2018-07-25T02:06:41.400Z,98243.72
2018-07-25T02:09:11.612Z,98246.28
2018-07-25T02:11:40.796Z,98254.48
2018-07-25T02:14:09.972Z,98248.61
2018-07-25T02:16:39.175Z,98245.36
2018-07-25T02:19:09.188Z,98249.75
2018-07-25T02:21:38.395Z,98244.59
2018-07-25T02:24:07.551Z,98247.15
2018-07-25T02:26:36.732Z,98251.12
2018-07-25T02:29:05.957Z,98252.59
2018-07-25T02:31:35.069Z,98254.45
2018-07-25T02:34:09.445Z,98246.59
2018-07-25T02:36:38.655Z,98257.48
2018-07-25T02:39:10.313Z,98254.92
2018-07-25T02:41:39.498Z,98259.88
2018-07-25T02:44:08.668Z,98263.03
2018-07-25T02:46:37.786Z,98257.72
2018-07-25T02:49:07.036Z,98264.34
2018-07-25T02:51:36.352Z,98263.94
2018-07-25T02:54:05.988Z,98257.26
2018-07-25T02:56:35.133Z,98256.70
2018-07-25T02:59:04.920Z,98261.72
2018-07-25T03:01:34.410Z,98267.69
2018-07-25T03:04:03.592Z,98269.52
2018-07-25T03:06:32.748Z,98271.64
2018-07-25T03:09:02.198Z,98273.55
2018-07-25T03:11:31.340Z,98269.11
2018-07-25T03:14:00.557Z,98274.80
2018-07-25T03:16:29.690Z,98278.07
2018-07-25T03:18:58.864Z,98270.87
2018-07-25T03:21:27.996Z,98281.11
2018-07-25T03:23:57.165Z,98279.73
2018-07-25T03:26:26.284Z,98280.41
2018-07-25T03:28:55.464Z,98285.52
2018-07-25T03:31:24.602Z,98301.89
2018-07-25T03:33:53.792Z,98286.67
2018-07-25T03:36:22.928Z,98284.34
2018-07-25T03:38:52.108Z,98292.62
2018-07-25T03:41:21.236Z,98290.09
2018-07-25T03:43:50.445Z,98288.20
2018-07-25T03:46:19.672Z,98284.86
2018-07-25T03:48:48.873Z,98284.34
2018-07-25T03:51:18.046Z,98284.89
2018-07-25T03:53:47.176Z,98284.84
2018-07-25T03:56:16.504Z,98169.34
2018-07-25T03:58:45.645Z,98292.81
2018-07-25T04:01:14.857Z,98290.66
2018-07-25T04:03:43.998Z,98287.86
2018-07-25T04:06:13.228Z,98292.53
2018-07-25T04:08:42.357Z,98297.40
2018-07-25T04:11:11.574Z,98297.72
2018-07-25T04:13:40.764Z,98299.91
2018-07-25T04:16:09.993Z,98299.45
2018-07-25T04:18:39.204Z,98296.48
2018-07-25T04:21:08.531Z,98297.54
2018-07-25T04:23:37.744Z,98300.73
2018-07-25T04:26:06.996Z,98307.13
2018-07-25T04:28:36.156Z,98303.23
2018-07-25T04:31:05.365Z,98307.27
2018-07-25T04:33:34.517Z,98307.48
2018-07-25T04:36:03.709Z,98309.49
2018-07-25T04:38:32.865Z,98310.89
2018-07-25T04:41:02.093Z,98307.64
2018-07-25T04:43:31.226Z,98313.71
2018-07-25T04:46:00.390Z,98318.92
2018-07-25T04:48:29.820Z,98323.10
2018-07-25T04:50:58.964Z,98325.74
2018-07-25T04:53:28.165Z,98330.60
2018-07-25T04:55:57.303Z,98326.31
2018-07-25T04:58:27.528Z,98327.95
2018-07-25T05:00:57.382Z,98325.82
2018-07-25T05:03:26.831Z,98331.04
2018-07-25T05:05:56.052Z,98332.62
2018-07-25T05:08:25.260Z,98334.88
2018-07-25T05:10:54.448Z,98338.49
2018-07-25T05:13:23.657Z,98338.61
2018-07-25T05:15:52.784Z,98345.22
2018-07-25T05:18:22.178Z,98347.52
2018-07-25T05:20:51.457Z,98343.39
2018-07-25T05:23:23.736Z,98350.56
2018-07-25T05:25:52.828Z,98343.93
2018-07-25T05:28:22.077Z,98345.88
2018-07-25T05:30:51.301Z,98353.97
2018-07-25T05:33:20.459Z,98353.55
2018-07-25T05:35:49.591Z,98349.59
2018-07-25T05:38:18.853Z,98353.64
2018-07-25T05:40:48.022Z,98350.41
2018-07-25T05:43:17.233Z,98358.48
2018-07-25T05:45:46.402Z,98354.72
2018-07-25T05:48:15.630Z,98357.13
2018-07-25T05:50:45.073Z,98364.38
2018-07-25T05:53:14.261Z,98360.89
2018-07-25T05:55:43.520Z,98361.44
2018-07-25T05:58:12.923Z,98366.80
2018-07-25T06:00:42.171Z,98364.62
2018-07-25T06:03:11.776Z,98367.00
2018-07-25T06:05:41.040Z,98368.30
2018-07-25T06:08:10.227Z,98364.46
2018-07-25T06:10:39.420Z,98367.16
2018-07-25T06:13:08.758Z,98368.44
2018-07-25T06:15:37.997Z,98364.25
2018-07-25T06:18:07.165Z,98372.22
2018-07-25T06:20:36.401Z,98369.39
2018-07-25T06:23:05.734Z,98361.78
2018-07-25T06:25:34.869Z,98367.03
2018-07-25T06:28:04.083Z,98361.00
2018-07-25T06:30:33.327Z,98363.84
2018-07-25T06:33:02.609Z,98370.77
2018-07-25T06:35:31.749Z,98362.25
2018-07-25T06:38:01.008Z,98362.69
2018-07-25T06:40:30.558Z,98360.20
2018-07-25T06:42:59.808Z,98362.82
2018-07-25T06:45:29.109Z,98364.50
2018-07-25T06:47:58.320Z,98107.34
2018-07-25T06:50:27.605Z,98367.98
2018-07-25T06:52:56.749Z,98374.11
2018-07-25T06:55:26.093Z,98370.59
2018-07-25T06:57:55.248Z,98376.92
2018-07-25T07:00:24.547Z,98375.78
2018-07-25T07:02:53.733Z,98375.38
2018-07-25T07:05:23.000Z,98375.78
2018-07-25T07:07:52.252Z,98380.91
2018-07-25T07:10:21.490Z,98370.05
2018-07-25T07:12:50.692Z,98373.02
2018-07-25T07:15:20.169Z,98371.10
2018-07-25T07:17:49.224Z,98378.66
2018-07-25T07:20:18.507Z,98371.70
2018-07-25T07:22:48.041Z,98375.48
2018-07-25T07:25:17.243Z,98366.80
2018-07-25T07:27:46.509Z,98369.10
2018-07-25T07:30:15.903Z,98373.24
2018-07-25T07:32:45.282Z,98363.91
2018-07-25T07:35:14.689Z,98365.05
2018-07-25T07:37:44.070Z,98359.50
2018-07-25T07:40:13.429Z,98366.85
2018-07-25T07:42:42.546Z,98364.64
2018-07-25T07:45:11.701Z,98359.82
2018-07-25T07:47:40.837Z,98359.76
2018-07-25T07:50:10.191Z,98364.86
2018-07-25T07:52:39.341Z,98364.66
2018-07-25T07:55:08.556Z,98365.96
2018-07-25T07:57:37.723Z,98360.50
2018-07-25T08:00:07.917Z,98365.45
2018-07-25T08:02:37.208Z,98365.61
2018-07-25T08:05:06.582Z,98363.65
2018-07-25T08:07:35.741Z,98366.98
2018-07-25T08:10:06.365Z,98359.45
2018-07-25T08:12:35.517Z,98364.64
2018-07-25T08:15:05.754Z,98361.94
2018-07-25T08:17:34.967Z,98363.24
2018-07-25T08:20:04.529Z,98364.86
2018-07-25T08:22:33.640Z,98367.67
2018-07-25T08:25:02.946Z,98360.47
2018-07-25T08:27:32.204Z,98362.33
2018-07-25T08:30:01.548Z,98359.99
2018-07-25T08:32:31.789Z,98360.17
2018-07-25T08:35:01.182Z,98358.94
2018-07-25T08:37:30.443Z,98353.02
2018-07-25T08:39:59.684Z,98354.36
2018-07-25T08:42:28.812Z,98347.47
2018-07-25T08:44:58.176Z,98342.53
2018-07-25T08:47:27.288Z,98343.36
2018-07-25T08:49:56.446Z,98347.17
2018-07-25T08:52:25.668Z,98346.41
2018-07-25T08:54:54.902Z,98347.82
2018-07-25T08:57:24.124Z,98344.50
2018-07-25T08:59:53.552Z,98343.31
2018-07-25T09:02:22.765Z,98346.98
2018-07-25T09:04:52.163Z,98340.26
2018-07-25T09:07:21.573Z,98339.44
2018-07-25T09:09:50.832Z,98336.97
2018-07-25T09:12:20.121Z,98334.91
2018-07-25T09:14:49.563Z,98338.08
2018-07-25T09:17:18.856Z,98339.34
2018-07-25T09:19:48.042Z,98335.86
2018-07-25T09:22:17.269Z,98344.52
2018-07-25T09:24:46.567Z,98340.23
2018-07-25T09:27:15.805Z,98340.22
2018-07-25T09:29:44.968Z,98342.41
2018-07-25T09:32:14.267Z,98332.58
2018-07-25T09:34:43.390Z,98341.39
2018-07-25T09:37:12.648Z,98345.44
2018-07-25T09:39:41.995Z,98348.73
2018-07-25T09:42:11.226Z,98340.87
2018-07-25T09:44:40.484Z,98345.80
2018-07-25T09:47:09.753Z,98340.33
2018-07-25T09:49:38.990Z,98338.47
2018-07-25T09:52:08.231Z,98339.48
2018-07-25T09:54:37.413Z,98337.25
2018-07-25T09:57:06.740Z,98335.64
2018-07-25T09:59:35.936Z,98329.81
2018-07-25T10:02:05.152Z,98333.16
2018-07-25T10:04:34.309Z,98328.91
2018-07-25T10:07:03.797Z,98329.78
2018-07-25T10:09:32.885Z,98320.69
2018-07-25T10:12:02.096Z,98327.29
2018-07-25T10:14:31.246Z,98323.44
2018-07-25T10:17:00.646Z,98313.37
2018-07-25T10:19:29.848Z,98320.67
2018-07-25T10:21:59.108Z,98319.19
2018-07-25T10:24:28.276Z,98322.11
2018-07-25T10:26:57.511Z,98326.31
2018-07-25T10:29:26.746Z,98283.02
2018-07-25T10:31:56.008Z,98317.91
2018-07-25T10:34:25.155Z,98316.23
2018-07-25T10:36:54.394Z,98314.41
2018-07-25T10:39:23.688Z,98309.39
2018-07-25T10:41:53.106Z,98318.59
2018-07-25T10:44:22.236Z,98309.84
2018-07-25T10:46:51.428Z,98305.84
2018-07-25T10:49:20.637Z,98310.86
2018-07-25T10:51:49.935Z,98308.31
2018-07-25T10:54:19.032Z,98309.20
2018-07-25T10:56:48.268Z,98302.97
2018-07-25T10:59:17.480Z,98292.52
2018-07-25T11:01:47.653Z,98293.64
2018-07-25T11:04:16.852Z,98295.88
2018-07-25T11:06:46.201Z,98304.73
2018-07-25T11:09:15.547Z,98303.78
2018-07-25T11:11:44.779Z,98294.19
2018-07-25T11:14:14.470Z,98291.67
2018-07-25T11:16:43.645Z,98296.94
2018-07-25T11:19:12.770Z,98293.73
2018-07-25T11:21:41.984Z,98289.41
2018-07-25T11:24:11.311Z,98292.13
2018-07-25T11:26:41.224Z,98287.84
2018-07-25T11:29:10.440Z,98288.85
2018-07-25T11:31:39.881Z,98284.60
2018-07-25T11:34:08.997Z,98287.58
2018-07-25T11:36:38.164Z,98289.26
2018-07-25T11:39:09.596Z,98290.19
2018-07-25T11:41:38.865Z,98282.36
2018-07-25T11:44:08.237Z,98280.49
2018-07-25T11:46:37.432Z,98277.42
2018-07-25T11:49:06.962Z,98270.81
2018-07-25T11:51:36.120Z,98265.70
2018-07-25T11:54:05.301Z,98267.04
2018-07-25T11:56:34.509Z,98276.23
2018-07-25T11:59:03.817Z,98272.41
2018-07-25T12:01:32.987Z,98266.92
2018-07-25T12:04:02.204Z,98267.66
2018-07-25T12:06:31.491Z,98271.55
2018-07-25T12:09:00.882Z,98270.64
2018-07-25T12:11:30.124Z,98270.00
2018-07-25T12:13:59.284Z,98264.41
2018-07-25T12:16:28.522Z,98260.23
2018-07-25T12:18:57.668Z,98260.22
2018-07-25T12:21:26.921Z,98246.73
2018-07-25T12:23:56.177Z,98242.38
2018-07-25T12:26:25.410Z,98252.44
2018-07-25T12:28:54.562Z,98248.29
2018-07-25T12:31:24.041Z,98255.64
2018-07-25T12:33:53.261Z,98241.72
2018-07-25T12:36:22.432Z,98243.75
2018-07-25T12:38:51.681Z,98234.88
2018-07-25T12:41:21.133Z,98234.44
2018-07-25T12:43:50.384Z,98228.91
2018-07-25T12:46:19.943Z,98224.81
2018-07-25T12:48:49.183Z,98220.79
2018-07-25T12:51:18.640Z,98221.09
2018-07-25T12:53:47.872Z,98217.95
2018-07-25T12:56:17.242Z,98215.71
2018-07-25T12:58:46.414Z,98219.61
2018-07-25T13:01:15.637Z,98221.72
2018-07-25T13:03:44.812Z,98220.72
2018-07-25T13:06:14.130Z,98214.86
2018-07-25T13:08:43.345Z,98210.81
2018-07-25T13:11:12.486Z,98215.50
2018-07-25T13:13:41.819Z,98211.38
2018-07-25T13:16:11.223Z,98216.70
2018-07-25T13:18:40.677Z,98213.66
2018-07-25T13:21:10.148Z,98207.30
2018-07-25T13:23:39.340Z,98201.48
2018-07-25T13:26:08.661Z,98205.67
2018-07-25T13:28:37.957Z,98203.85
2018-07-25T13:31:07.439Z,98205.47
2018-07-25T13:33:36.666Z,98206.71
2018-07-25T13:36:05.921Z,98205.93
2018-07-25T13:38:35.108Z,98200.78
2018-07-25T13:41:04.342Z,98202.50
2018-07-25T13:43:33.624Z,98202.49
2018-07-25T13:46:02.964Z,98199.88
2018-07-25T13:48:32.276Z,98207.58
2018-07-25T13:51:01.573Z,98193.55
2018-07-25T13:53:30.829Z,98191.26
2018-07-25T13:56:00.081Z,98193.19
2018-07-25T13:58:29.264Z,98194.35
2018-07-25T14:00:58.626Z,98192.75
2018-07-25T14:03:27.845Z,98184.42
2018-07-25T14:05:57.088Z,98190.13
2018-07-25T14:08:26.224Z,98186.03
2018-07-25T14:10:55.526Z,98183.58
2018-07-25T14:13:24.773Z,98189.25
2018-07-25T14:15:54.072Z,98185.38
2018-07-25T14:18:23.236Z,98180.58
2018-07-25T14:20:52.501Z,98188.12
2018-07-25T14:23:21.745Z,98183.23
2018-07-25T14:25:50.944Z,98178.79
2018-07-25T14:28:20.161Z,98178.99
2018-07-25T14:30:49.477Z,98183.09
2018-07-25T14:33:18.890Z,98177.61
2018-07-25T14:35:48.048Z,98175.23
2018-07-25T14:38:17.263Z,98175.83
2018-07-25T14:40:46.567Z,98168.19
2018-07-25T14:43:15.925Z,98163.75
2018-07-25T14:45:45.017Z,98157.72
2018-07-25T14:48:14.329Z,98159.27
2018-07-25T14:50:43.523Z,98156.03
2018-07-25T14:53:12.752Z,98152.09
2018-07-25T14:55:41.925Z,98154.59
2018-07-25T14:58:11.159Z,98153.13
2018-07-25T15:00:40.452Z,98152.11
2018-07-25T15:03:09.660Z,98157.11
2018-07-25T15:05:38.904Z,98165.08
2018-07-25T15:08:08.187Z,98163.56
2018-07-25T15:10:37.640Z,98155.75
2018-07-25T15:13:07.086Z,98160.11
2018-07-25T15:15:36.312Z,98159.13
2018-07-25T15:18:05.550Z,98160.41
2018-07-25T15:20:34.794Z,98163.84
2018-07-25T15:23:04.076Z,98163.80
2018-07-25T15:25:33.372Z,98164.81
2018-07-25T15:28:02.613Z,98162.67
2018-07-25T15:30:31.850Z,98168.40
2018-07-25T15:33:01.149Z,98166.00
2018-07-25T15:35:30.465Z,98165.75
2018-07-25T15:37:59.701Z,98175.45
2018-07-25T15:40:28.968Z,98167.80
2018-07-25T15:42:58.212Z,98168.59
2018-07-25T15:45:27.720Z,98168.21
2018-07-25T15:47:56.913Z,98168.35
2018-07-25T15:50:26.250Z,98159.86
2018-07-25T15:52:55.527Z,98163.14
2018-07-25T15:55:24.713Z,98163.17
2018-07-25T15:57:53.901Z,98163.47
2018-07-25T16:00:23.154Z,98161.52
2018-07-25T16:02:52.712Z,98159.66
2018-07-25T16:05:21.964Z,98165.09
2018-07-25T16:07:51.109Z,98162.11
2018-07-25T16:10:20.341Z,98156.42
2018-07-25T16:12:49.600Z,98159.83
2018-07-25T16:15:18.940Z,98154.16
2018-07-25T16:17:48.189Z,98153.48
2018-07-25T16:20:17.464Z,98155.19
2018-07-25T16:22:46.695Z,98156.00
2018-07-25T16:25:15.925Z,98154.36
2018-07-25T16:27:45.181Z,98155.05
2018-07-25T16:30:14.567Z,98161.30
2018-07-25T16:32:43.939Z,98148.94
2018-07-25T16:35:13.176Z,98143.41
2018-07-25T16:37:42.492Z,98137.70
2018-07-25T16:40:11.827Z,98151.48
2018-07-25T16:42:41.092Z,98155.67
2018-07-25T16:45:10.468Z,98150.59
2018-07-25T16:47:39.733Z,98152.52
2018-07-25T16:50:09.193Z,98149.90
2018-07-25T16:52:38.385Z,98147.88
2018-07-25T16:55:07.637Z,98151.83
2018-07-25T16:57:37.218Z,98149.62
2018-07-25T17:00:07.070Z,98154.48
2018-07-25T17:02:36.310Z,98158.16
2018-07-25T17:05:05.793Z,98152.92
2018-07-25T17:07:35.012Z,98145.42
2018-07-25T17:10:04.403Z,98139.16
2018-07-25T17:12:33.864Z,98140.00
2018-07-25T17:15:03.234Z,98141.05
2018-07-25T17:17:32.544Z,98138.99
2018-07-25T17:20:01.857Z,98142.85
2018-07-25T17:22:32.140Z,98139.95
2018-07-25T17:25:01.580Z,98140.20
2018-07-25T17:27:31.833Z,98137.27
2018-07-25T17:30:01.192Z,98138.67
2018-07-25T17:32:30.420Z,98137.64
2018-07-25T17:34:59.737Z,98145.14
2018-07-25T17:37:28.958Z,98140.34
2018-07-25T17:39:58.327Z,98141.08
2018-07-25T17:42:27.560Z,98143.41
2018-07-25T17:44:56.861Z,98138.91
2018-07-25T17:47:26.140Z,98144.91
2018-07-25T17:49:55.617Z,98143.84
2018-07-25T17:52:24.872Z,98148.52
2018-07-25T17:54:54.324Z,98146.59
2018-07-25T17:57:23.584Z,98145.09
2018-07-25T17:59:52.808Z,98147.48
2018-07-25T18:02:22.173Z,98151.95
2018-07-25T18:04:51.441Z,98155.25
2018-07-25T18:07:20.650Z,98156.05
2018-07-25T18:09:49.884Z,98165.33
2018-07-25T18:12:19.248Z,98166.80
2018-07-25T18:14:48.584Z,98177.47
2018-07-25T18:17:17.759Z,98173.09
2018-07-25T18:19:46.994Z,98175.92
2018-07-25T18:22:16.348Z,98179.72
2018-07-25T18:24:45.614Z,98180.05
2018-07-25T18:27:14.897Z,98179.37
2018-07-25T18:29:44.165Z,98185.72
2018-07-25T18:32:13.409Z,98190.61
2018-07-25T18:34:42.543Z,98194.16
2018-07-25T18:37:11.758Z,98198.36
2018-07-25T18:39:41.928Z,98204.45
2018-07-25T18:42:11.199Z,98211.67
2018-07-25T18:44:40.361Z,98211.19
2018-07-25T18:47:09.623Z,98215.58
2018-07-25T18:49:38.816Z,98212.71
2018-07-25T18:52:08.328Z,98217.34
2018-07-25T18:54:37.496Z,98221.25
2018-07-25T18:57:06.713Z,98219.33
2018-07-25T18:59:36.657Z,98223.22
2018-07-25T19:02:05.893Z,98217.05
2018-07-25T19:04:35.105Z,98219.23
2018-07-25T19:07:04.357Z,98223.39
2018-07-25T19:09:33.457Z,98224.50
2018-07-25T19:12:03.553Z,98227.58
2018-07-25T19:14:37.901Z,98233.50
2018-07-25T19:17:07.236Z,98232.08
2018-07-25T19:19:36.548Z,98230.95
2018-07-25T19:22:05.723Z,98240.19
2018-07-25T19:24:34.849Z,98239.06
2018-07-25T19:27:04.566Z,98245.53
2018-07-25T19:29:33.694Z,98252.23
2018-07-25T19:32:02.850Z,98246.58
2018-07-25T19:34:32.024Z,98258.52
2018-07-25T19:37:01.145Z,98258.55
2018-07-25T19:39:34.457Z,98260.95
2018-07-25T19:42:03.769Z,98263.63
2018-07-25T19:44:33.185Z,98269.55
2018-07-25T19:47:02.296Z,98277.02
2018-07-25T19:49:31.750Z,98275.17
2018-07-25T19:52:01.199Z,98275.06
2018-07-25T19:54:30.464Z,98282.00
2018-07-25T19:56:59.668Z,98281.83
2018-07-25T19:59:28.932Z,98281.12
2018-07-25T20:01:58.073Z,98279.32
2018-07-25T20:04:27.237Z,98290.87
2018-07-25T20:06:56.364Z,98290.77
2018-07-25T20:09:25.594Z,98291.38
2018-07-25T20:11:54.749Z,98299.33
2018-07-25T20:14:29.385Z,98302.37
2018-07-25T20:16:58.553Z,98297.56
2018-07-25T20:19:27.805Z,98298.98
2018-07-25T20:21:56.973Z,98300.10
2018-07-25T20:24:26.198Z,98294.47
2018-07-25T20:26:55.457Z,98302.11
2018-07-25T20:29:24.601Z,98297.92
2018-07-25T20:31:53.748Z,98302.31
2018-07-25T20:34:23.002Z,98302.95
2018-07-25T20:36:52.241Z,98306.42
2018-07-25T20:39:21.537Z,98304.42
2018-07-25T20:41:50.656Z,98307.12
2018-07-25T20:44:19.873Z,98309.28
2018-07-25T20:46:49.060Z,98303.91
2018-07-25T20:49:18.220Z,98307.47
2018-07-25T20:51:47.427Z,98310.30
2018-07-25T21:00:10.999Z,98315.52
2018-07-25T21:03:03.412Z,98313.11
2018-07-25T21:08:32.941Z,98314.27
2018-07-25T21:11:03.825Z,98316.71
2018-07-25T21:13:36.839Z,98320.25
2018-07-25T21:16:27.708Z,98321.82
2018-07-25T21:22:04.873Z,98331.31
2018-07-25T21:24:35.288Z,98327.02
2018-07-25T21:27:11.693Z,98333.24
2018-07-25T21:29:45.835Z,98336.24
2018-07-25T21:32:16.458Z,98335.19
2018-07-25T21:34:48.173Z,98336.81
2018-07-25T21:37:18.085Z,98343.33
2018-07-25T21:39:52.200Z,98342.24
2018-07-25T21:42:24.400Z,98333.67
2018-07-25T21:44:58.060Z,98341.25
2018-07-25T21:47:27.511Z,98344.47
2018-07-25T21:49:58.790Z,98345.58
2018-07-25T21:52:27.999Z,98348.80
2018-07-25T21:54:57.339Z,98348.80
2018-07-25T21:57:26.541Z,98347.71
2018-07-25T21:59:55.792Z,98346.12
2018-07-25T22:02:25.062Z,98346.66
2018-07-25T22:04:54.297Z,98346.64
2018-07-25T22:07:23.501Z,98344.23
2018-07-25T22:09:52.701Z,98346.37
2018-07-25T22:12:22.072Z,98345.82
2018-07-25T22:14:51.259Z,98348.52
2018-07-25T22:17:20.431Z,98345.55
2018-07-25T22:19:49.580Z,98343.12
2018-07-25T22:22:18.724Z,98348.20
2018-07-25T22:24:47.931Z,98347.91
2018-07-25T22:27:17.159Z,98355.97
2018-07-25T22:29:46.280Z,98352.44
2018-07-25T22:32:15.487Z,98355.91
2018-07-25T22:34:44.640Z,98359.67
2018-07-25T22:37:13.855Z,98359.92
2018-07-25T22:39:43.289Z,98361.02
2018-07-25T22:42:12.455Z,98363.92
2018-07-25T22:44:41.663Z,98361.52
2018-07-25T22:47:10.866Z,98360.16
2018-07-25T22:49:40.065Z,98359.07
2018-07-25T22:52:09.227Z,98365.83
2018-07-25T22:54:38.401Z,98367.95
2018-07-25T22:57:07.671Z,98368.20
2018-07-25T22:59:37.034Z,98374.02
2018-07-25T23:02:06.506Z,98373.77
2018-07-25T23:04:35.729Z,98375.31
2018-07-25T23:07:05.573Z,98375.72
2018-07-25T23:09:34.817Z,98368.42
2018-07-25T23:12:04.084Z,98371.11
2018-07-25T23:14:33.365Z,98371.88
2018-07-25T23:17:02.597Z,98383.13
2018-07-25T23:19:31.904Z,98372.92
2018-07-25T23:22:01.088Z,98376.66
2018-07-25T23:24:30.349Z,98375.55
2018-07-25T23:26:59.573Z,98379.48
2018-07-25T23:29:28.756Z,98376.77
2018-07-25T23:31:57.950Z,98374.31
2018-07-25T23:34:27.280Z,98382.08
2018-07-25T23:36:56.422Z,98375.94
2018-07-25T23:39:25.743Z,98386.38
2018-07-25T23:41:55.008Z,98372.30
2018-07-25T23:44:24.173Z,98371.23
2018-07-25T23:46:53.467Z,98372.27
2018-07-25T23:49:22.688Z,98376.48
2018-07-25T23:51:51.848Z,98376.55
2018-07-25T23:54:21.044Z,98375.73
2018-07-25T23:56:50.345Z,98372.59
2018-07-25T23:59:19.556Z,98372.27
